createdAt,value
2019-04-23T00:02:56.292Z,7.83
2019-04-23T00:05:17.249Z,7.83
2019-04-23T00:12:47.832Z,8.67
2019-04-23T00:17:47.866Z,8.70
2019-04-23T00:20:25.746Z,9.23
2019-04-23T00:28:16.103Z,8.73
2019-04-23T00:30:54.986Z,8.50
2019-04-23T00:38:18.266Z,9.03
2019-04-23T00:40:46.765Z,9.17
2019-04-23T00:43:17.379Z,8.23
2019-04-23T00:45:44.561Z,8.60
2019-04-23T00:48:22.360Z,9.13
2019-04-23T00:50:53.054Z,9.47
2019-04-23T00:53:18.851Z,8.97
2019-04-23T00:55:47.722Z,9.60
2019-04-23T00:58:30.416Z,9.10
2019-04-23T01:03:18.595Z,8.77
2019-04-23T01:11:16.620Z,10.20
2019-04-23T01:13:39.536Z,10.90
2019-04-23T01:16:08.038Z,10.00
2019-04-23T01:21:19.923Z,9.80
2019-04-23T01:24:19.540Z,10.20
2019-04-23T01:27:39.672Z,10.83
2019-04-23T01:30:04.769Z,10.93
2019-04-23T01:32:33.593Z,11.70
2019-04-23T01:35:18.904Z,11.17
2019-04-23T01:37:30.092Z,10.73
2019-04-23T01:40:05.999Z,11.50
2019-04-23T01:45:11.648Z,11.27
2019-04-23T01:47:38.957Z,11.57
2019-04-23T01:50:08.251Z,10.93
2019-04-23T01:52:38.087Z,11.77
2019-04-23T01:55:08.332Z,12.23
2019-04-23T01:57:37.743Z,11.63
2019-04-23T02:00:16.092Z,12.57
2019-04-23T02:02:46.201Z,12.23
2019-04-23T02:05:19.301Z,11.93
2019-04-23T02:07:44.490Z,12.37
2019-04-23T02:10:16.997Z,11.37
2019-04-23T02:12:44.741Z,12.63
2019-04-23T02:15:12.101Z,13.00
2019-04-23T02:17:47.240Z,11.90
2019-04-23T02:20:17.930Z,13.13
2019-04-23T02:22:58.648Z,12.10
2019-04-23T02:25:40.804Z,11.93
2019-04-23T02:28:03.037Z,12.43
2019-04-23T02:30:58.185Z,12.73
2019-04-23T02:33:29.426Z,12.37
2019-04-23T02:40:46.676Z,13.13
2019-04-23T02:43:14.999Z,11.43
2019-04-23T02:45:39.922Z,11.50
2019-04-23T02:50:39.650Z,13.33
2019-04-23T02:53:14.460Z,12.83
2019-04-23T02:58:18.487Z,12.50
2019-04-23T03:00:55.581Z,12.90
2019-04-23T03:03:23.195Z,12.73
2019-04-23T03:05:49.267Z,12.80
2019-04-23T03:08:24.507Z,12.37
2019-04-23T03:11:01.337Z,12.53
2019-04-23T03:13:29.505Z,13.07
2019-04-23T03:19:02.593Z,11.70
2019-04-23T03:21:46.818Z,11.73
2019-04-23T03:24:36.564Z,12.00
2019-04-23T03:35:24.080Z,11.97
2019-04-23T03:39:42.116Z,11.43
2019-04-23T03:42:02.662Z,12.07
2019-04-23T03:47:04.288Z,11.37
2019-04-23T03:54:39.919Z,11.63
2019-04-23T04:02:19.661Z,12.30
2019-04-23T04:04:33.309Z,11.10
2019-04-23T04:07:15.325Z,12.03
2019-04-23T04:09:46.323Z,11.97
2019-04-23T04:12:17.349Z,11.93
2019-04-23T04:14:49.217Z,11.90
2019-04-23T04:19:47.646Z,11.87
2019-04-23T04:25:02.049Z,10.33
2019-04-23T04:27:36.457Z,10.40
2019-04-23T04:30:01.045Z,11.00
2019-04-23T04:32:09.835Z,10.57
2019-04-23T04:35:12.526Z,10.70
2019-04-23T04:37:37.667Z,10.63
2019-04-23T04:39:53.158Z,10.87
2019-04-23T04:44:50.297Z,10.63
2019-04-23T04:47:28.575Z,10.63
2019-04-23T04:49:58.343Z,10.70
2019-04-23T04:52:37.876Z,10.07
2019-04-23T04:54:39.675Z,9.70
2019-04-23T04:57:32.660Z,10.63
2019-04-23T05:00:03.911Z,10.43
2019-04-23T05:07:40.278Z,10.90
2019-04-23T05:12:27.653Z,10.60
2019-04-23T05:20:20.453Z,10.40
2019-04-23T05:23:00.604Z,9.80
2019-04-23T05:25:20.917Z,10.40
2019-04-23T05:27:55.342Z,10.73
2019-04-23T05:30:22.602Z,11.53
2019-04-23T05:32:50.479Z,10.47
2019-04-23T05:35:40.058Z,10.63
2019-04-23T05:38:10.304Z,10.57
2019-04-23T05:40:30.493Z,11.20
2019-04-23T05:42:55.044Z,10.37
2019-04-23T05:45:21.837Z,11.30
2019-04-23T05:48:04.714Z,10.73
2019-04-23T05:50:38.634Z,10.20
2019-04-23T05:52:59.575Z,10.77
2019-04-23T05:55:25.049Z,9.93
2019-04-23T05:58:03.661Z,10.30
2019-04-23T06:00:34.744Z,11.77
2019-04-23T06:03:08.082Z,9.80
2019-04-23T06:05:33.873Z,10.93
2019-04-23T06:08:05.683Z,10.23
2019-04-23T06:10:32.654Z,10.07
2019-04-23T06:13:03.046Z,10.33
2019-04-23T06:15:32.464Z,11.27
2019-04-23T06:18:10.112Z,11.20
2019-04-23T06:20:42.403Z,10.03
2019-04-23T06:23:09.252Z,11.17
2019-04-23T06:25:53.802Z,10.53
2019-04-23T06:28:08.222Z,10.93
2019-04-23T06:33:18.058Z,9.67
2019-04-23T06:35:42.076Z,10.33
2019-04-23T06:40:40.479Z,9.57
2019-04-23T06:43:33.070Z,8.93
2019-04-23T06:45:59.678Z,9.70
2019-04-23T06:51:04.282Z,9.23
2019-04-23T06:53:29.126Z,10.20
2019-04-23T06:56:08.808Z,9.30
2019-04-23T07:01:05.380Z,9.63
2019-04-23T07:03:38.341Z,9.40
2019-04-23T07:08:56.359Z,8.93
2019-04-23T07:11:16.785Z,8.63
2019-04-23T07:13:54.735Z,9.80
2019-04-23T07:16:11.357Z,9.30
2019-04-23T07:18:44.550Z,8.80
2019-04-23T07:21:17.699Z,9.20
2019-04-23T07:23:54.695Z,8.67
2019-04-23T07:26:27.391Z,9.03
2019-04-23T07:28:49.744Z,8.23
2019-04-23T07:31:24.361Z,8.63
2019-04-23T07:33:54.727Z,8.57
2019-04-23T07:36:24.336Z,8.50
2019-04-23T07:39:06.063Z,8.27
2019-04-23T07:41:54.835Z,8.80
2019-04-23T07:44:42.720Z,8.93
2019-04-23T07:49:43.397Z,7.80
2019-04-23T07:52:13.350Z,8.03
2019-04-23T07:54:38.725Z,8.37
2019-04-23T07:59:45.446Z,8.67
2019-04-23T08:02:16.080Z,8.03
2019-04-23T08:04:42.587Z,8.30
2019-04-23T08:07:17.926Z,8.20
2019-04-23T08:12:19.213Z,7.93
2019-04-23T08:14:51.559Z,7.93
2019-04-23T08:17:12.531Z,8.37
2019-04-23T08:19:49.117Z,8.10
2019-04-23T08:22:19.787Z,7.03
2019-04-23T08:24:55.605Z,7.77
2019-04-23T08:27:27.912Z,8.00
2019-04-23T08:29:56.064Z,7.90
2019-04-23T08:32:47.333Z,8.00
2019-04-23T08:35:01.722Z,7.50
2019-04-23T08:40:02.603Z,8.50
2019-04-23T08:42:45.712Z,8.43
2019-04-23T08:48:22.920Z,8.17
2019-04-23T08:55:55.038Z,7.97
2019-04-23T08:58:19.085Z,8.33
2019-04-23T09:00:51.830Z,8.23
2019-04-23T09:11:13.864Z,8.40
2019-04-23T09:15:58.187Z,8.50
2019-04-23T09:20:55.012Z,8.13
2019-04-23T09:23:35.119Z,8.00
2019-04-23T09:28:50.818Z,8.33
2019-04-23T09:31:02.826Z,8.80
2019-04-23T09:33:47.139Z,9.03
2019-04-23T09:36:37.959Z,8.20
2019-04-23T09:39:23.048Z,9.07
2019-04-23T09:42:27.628Z,8.43
2019-04-23T09:45:05.356Z,8.37
2019-04-23T09:48:03.591Z,8.83
2019-04-23T09:50:29.530Z,8.13
2019-04-23T09:55:35.818Z,8.20
2019-04-23T09:58:03.992Z,8.30
2019-04-23T10:02:59.091Z,9.30
2019-04-23T10:05:22.073Z,8.40
2019-04-23T10:07:50.811Z,8.23
2019-04-23T10:10:10.277Z,8.33
2019-04-23T10:12:39.926Z,7.50
2019-04-23T10:15:16.404Z,8.87
2019-04-23T10:17:40.315Z,8.33
2019-04-23T10:20:10.838Z,8.07
2019-04-23T10:22:39.862Z,8.33
2019-04-23T10:25:10.887Z,7.73
2019-04-23T10:27:41.304Z,8.47
2019-04-23T10:30:12.254Z,7.87
2019-04-23T10:32:41.231Z,8.20
2019-04-23T10:35:22.215Z,8.37
2019-04-23T10:37:49.082Z,8.00
2019-04-23T10:40:16.941Z,7.63
2019-04-23T10:42:45.606Z,7.60
2019-04-23T10:45:57.172Z,7.57
2019-04-23T10:49:22.518Z,8.77
2019-04-23T10:51:51.348Z,7.33
2019-04-23T10:54:24.885Z,8.53
2019-04-23T10:59:37.252Z,7.80
2019-04-23T11:02:15.732Z,8.47
2019-04-23T11:04:49.120Z,6.47
2019-04-23T11:12:24.163Z,7.80
2019-04-23T11:14:49.787Z,8.10
2019-04-23T11:17:19.434Z,8.20
2019-04-23T11:19:52.855Z,8.40
2019-04-23T11:22:41.987Z,8.87
2019-04-23T11:24:50.097Z,8.43
2019-04-23T11:27:25.978Z,8.47
2019-04-23T11:29:48.702Z,8.53
2019-04-23T11:32:44.798Z,7.80
2019-04-23T11:37:33.258Z,8.27
2019-04-23T11:39:55.720Z,8.17
2019-04-23T11:44:56.502Z,8.60
2019-04-23T11:47:47.024Z,8.43
2019-04-23T11:49:55.951Z,8.40
2019-04-23T12:05:41.325Z,7.50
2019-04-23T12:08:23.287Z,8.17
2019-04-23T12:11:25.643Z,7.87
2019-04-23T12:13:36.867Z,7.67
2019-04-23T12:16:00.876Z,7.73
2019-04-23T12:21:20.051Z,8.47
2019-04-23T12:26:34.245Z,7.30
2019-04-23T12:28:51.329Z,6.70
2019-04-23T12:31:26.544Z,7.27
2019-04-23T12:34:07.239Z,7.57
2019-04-23T12:36:46.844Z,8.30
2019-04-23T12:39:25.853Z,7.33
2019-04-23T12:41:57.241Z,7.20
2019-04-23T12:44:22.498Z,7.30
2019-04-23T12:46:52.841Z,7.37
2019-04-23T12:49:44.573Z,6.80
2019-04-23T12:52:05.194Z,7.27
2019-04-23T12:54:51.741Z,7.23
2019-04-23T12:57:12.382Z,7.17
2019-04-23T12:59:36.699Z,8.07
2019-04-23T13:02:15.766Z,7.60
2019-04-23T13:04:42.442Z,7.07
2019-04-23T13:07:22.227Z,7.40
2019-04-23T13:09:54.090Z,7.73
2019-04-23T13:12:30.746Z,8.10
2019-04-23T13:14:51.102Z,7.83
2019-04-23T13:17:34.922Z,7.50
2019-04-23T13:19:56.036Z,7.60
2019-04-23T13:22:23.349Z,7.67
2019-04-23T13:25:02.021Z,8.40
2019-04-23T13:27:41.592Z,9.40
2019-04-23T13:30:06.726Z,7.93
2019-04-23T13:32:43.358Z,8.73
2019-04-23T13:35:22.184Z,8.63
2019-04-23T13:37:49.672Z,8.40
2019-04-23T13:40:09.549Z,7.67
2019-04-23T13:45:18.474Z,8.47
2019-04-23T13:47:58.007Z,8.80
2019-04-23T13:50:24.840Z,9.20
2019-04-23T13:55:24.827Z,8.80
2019-04-23T13:58:04.265Z,8.40
2019-04-23T14:00:20.684Z,8.03
2019-04-23T14:02:46.117Z,8.93
2019-04-23T14:08:05.375Z,8.23
2019-04-23T14:10:40.287Z,8.33
2019-04-23T14:13:28.517Z,8.10
2019-04-23T14:18:19.555Z,8.33
2019-04-23T14:20:28.219Z,8.83
2019-04-23T14:25:40.207Z,7.97
2019-04-23T14:28:19.362Z,8.53
2019-04-23T14:30:38.414Z,8.20
2019-04-23T14:33:12.298Z,8.47
2019-04-23T14:46:12.107Z,9.77
2019-04-23T14:48:14.632Z,8.90
2019-04-23T14:50:48.859Z,8.80
2019-04-23T14:53:30.232Z,9.03
2019-04-23T14:56:14.746Z,8.70
2019-04-23T15:01:07.525Z,8.47
2019-04-23T15:03:33.222Z,9.00
2019-04-23T15:08:32.529Z,9.37
2019-04-23T15:11:13.211Z,8.77
2019-04-23T15:13:28.069Z,9.70
2019-04-23T15:16:09.874Z,9.77
2019-04-23T15:28:37.487Z,9.37
2019-04-23T15:34:14.020Z,10.23
2019-04-23T15:41:41.859Z,9.37
2019-04-23T15:44:06.162Z,9.03
2019-04-23T15:46:35.382Z,10.40
2019-04-23T15:51:40.531Z,9.77
2019-04-23T15:54:03.060Z,9.03
2019-04-23T15:56:40.937Z,10.30
2019-04-23T16:01:34.132Z,9.13
2019-04-23T16:03:40.866Z,10.63
2019-04-23T16:06:12.756Z,11.10
2019-04-23T16:11:49.562Z,10.33
2019-04-23T16:16:46.293Z,10.60
2019-04-23T16:19:36.696Z,11.23
2019-04-23T16:22:18.763Z,10.23
2019-04-23T16:24:46.659Z,10.00
2019-04-23T16:27:13.850Z,9.63
2019-04-23T16:32:14.903Z,10.47
2019-04-23T16:34:54.429Z,11.27
2019-04-23T16:37:26.481Z,12.07
2019-04-23T16:40:08.098Z,9.67
2019-04-23T16:45:06.081Z,11.00
2019-04-23T16:47:28.573Z,10.60
2019-04-23T16:50:04.735Z,10.20
2019-04-23T16:52:26.753Z,10.37
2019-04-23T16:55:03.346Z,10.73
2019-04-23T17:00:18.803Z,11.27
2019-04-23T17:05:17.997Z,10.67
2019-04-23T17:07:36.828Z,10.87
2019-04-23T17:12:38.374Z,10.87
2019-04-23T17:15:07.133Z,11.70
2019-04-23T17:17:37.944Z,11.70
2019-04-23T17:22:38.595Z,11.47
2019-04-23T17:28:05.634Z,12.30
2019-04-23T17:30:11.526Z,12.63
2019-04-23T17:33:04.028Z,11.27
2019-04-23T17:38:07.782Z,11.27
2019-04-23T17:40:32.477Z,11.53
2019-04-23T17:43:05.890Z,11.97
2019-04-23T17:48:24.096Z,11.37
2019-04-23T17:50:56.765Z,10.93
2019-04-23T17:53:25.282Z,12.47
2019-04-23T17:56:18.521Z,12.20
2019-04-23T17:58:28.592Z,12.20
2019-04-23T18:01:17.281Z,11.77
2019-04-23T18:03:52.788Z,12.00
2019-04-23T18:06:22.572Z,12.13
2019-04-23T18:08:43.725Z,11.90
2019-04-23T18:13:55.330Z,12.47
2019-04-23T18:16:21.608Z,12.20
2019-04-23T18:18:52.991Z,12.33
2019-04-23T18:24:16.786Z,11.53
2019-04-23T18:26:45.969Z,11.73
2019-04-23T18:29:25.671Z,11.37
2019-04-23T18:34:43.908Z,12.07
2019-04-23T18:37:02.441Z,12.27
2019-04-23T18:39:29.996Z,12.63
2019-04-23T18:42:09.703Z,12.63
2019-04-23T18:44:40.351Z,12.67
2019-04-23T18:47:08.983Z,14.57
2019-04-23T18:49:41.135Z,11.97
2019-04-23T18:52:06.856Z,11.90
2019-04-23T18:54:34.704Z,12.67
2019-04-23T18:59:47.060Z,12.77
2019-04-23T19:02:35.225Z,12.80
2019-04-23T19:05:08.429Z,13.10
2019-04-23T19:10:51.032Z,13.03
2019-04-23T19:13:28.914Z,13.27
2019-04-23T19:15:48.792Z,14.03
2019-04-23T19:18:36.046Z,13.20
2019-04-23T19:21:13.600Z,12.73
2019-04-23T19:23:42.859Z,13.77
2019-04-23T19:25:59.720Z,13.53
2019-04-23T19:28:41.159Z,13.13
2019-04-23T19:31:25.318Z,13.23
2019-04-23T19:34:14.621Z,13.33
2019-04-23T19:39:11.356Z,12.57
2019-04-23T19:41:49.542Z,12.33
2019-04-23T19:44:09.811Z,12.50
2019-04-23T19:49:09.734Z,11.60
2019-04-23T19:54:17.103Z,12.27
2019-04-23T19:56:51.863Z,12.53
2019-04-23T19:59:14.115Z,13.50
2019-04-23T20:01:49.806Z,13.67
2019-04-23T20:04:36.424Z,12.23
2019-04-23T20:07:06.111Z,13.10
2019-04-23T20:09:33.482Z,12.93
2019-04-23T20:11:52.783Z,13.63
2019-04-23T20:14:19.164Z,14.47
2019-04-23T20:17:04.126Z,14.73
2019-04-23T20:19:16.381Z,13.40
2019-04-23T20:21:50.939Z,13.33
2019-04-23T20:26:59.312Z,13.93
2019-04-23T20:35:13.013Z,13.80
2019-04-23T20:38:17.307Z,13.00
2019-04-23T22:51:53.256Z,9.77
2019-04-23T22:54:09.868Z,10.30
2019-04-23T22:56:53.637Z,9.63
2019-04-23T23:04:24.751Z,9.37
2019-04-23T23:06:55.621Z,9.00
2019-04-23T23:11:54.104Z,9.73
2019-04-23T23:14:22.434Z,9.33
2019-04-23T23:16:50.368Z,9.90
2019-04-23T23:22:02.210Z,8.60
2019-04-23T23:24:18.252Z,10.50
2019-04-23T23:29:21.935Z,9.60
2019-04-23T23:34:25.619Z,8.87
2019-04-23T23:37:00.179Z,9.03
2019-04-23T23:39:27.450Z,8.60
2019-04-23T23:41:59.351Z,9.10
2019-04-23T23:47:04.363Z,9.53
2019-04-23T23:51:57.190Z,8.57
2019-04-23T23:54:30.914Z,9.33
2019-04-23T23:57:11.197Z,9.40
